Time,TemperatureF,DewpointF,PressureIn,WindDirection,WindDirectionDegrees,WindSpeedMPH,WindSpeedGustMPH,Humidity,HourlyPrecipIn,Conditions,Clouds,dailyrainin,SoftwareType,DateUTC
2013-09-30 00:04:00,59.0,45.0,-100.00,NNE,30,2.0,9.0,60,0.00,,,-99.99,,2013-09-30 04:04:00,
2013-09-30 06:43:00,56.0,41.0,-100.00,West,260,4.0,14.0,58,0.00,,,-99.99,,2013-09-30 10:43:00,
2013-09-30 06:53:00,56.0,41.0,-100.00,West,260,4.0,14.0,58,0.00,,,-99.99,,2013-09-30 10:53:00,
2013-09-30 07:03:00,56.0,41.0,-100.00,West,260,4.0,14.0,58,0.00,,,-99.99,,2013-09-30 11:03:00,
2013-09-30 07:43:00,54.0,41.0,-100.00,WSW,245,2.0,12.0,61,0.00,,,-99.99,,2013-09-30 11:43:00,
2013-09-30 07:52:00,54.0,41.0,-100.00,WSW,245,2.0,12.0,61,0.00,,,-99.99,,2013-09-30 11:52:00,
2013-09-30 08:02:00,54.0,41.0,-100.00,WSW,245,2.0,12.0,61,0.00,,,-99.99,,2013-09-30 12:02:00,
2013-09-30 08:42:00,54.0,42.0,-100.00,WNW,290,1.0,9.0,63,0.00,,,-99.99,,2013-09-30 12:42:00,
2013-09-30 08:52:00,54.0,42.0,-100.00,WNW,290,1.0,9.0,63,0.00,,,-99.99,,2013-09-30 12:52:00,
2013-09-30 09:01:00,54.0,42.0,-100.00,WNW,290,1.0,9.0,63,0.00,,,-99.99,,2013-09-30 13:01:00,
2013-09-30 09:42:00,55.0,44.0,-100.00,West,270,2.0,14.0,66,0.00,,,-99.99,,2013-09-30 13:42:00,
2013-09-30 09:52:00,55.0,44.0,-100.00,West,270,2.0,14.0,66,0.00,,,-99.99,,2013-09-30 13:52:00,
2013-09-30 10:02:00,55.0,44.0,-100.00,West,270,2.0,14.0,66,0.00,,,-99.99,,2013-09-30 14:02:00,
2013-09-30 10:10:00,59.0,45.0,-100.00,WSW,240,2.0,12.0,60,0.00,,,-99.99,,2013-09-30 14:10:00,
2013-09-30 10:42:00,59.0,45.0,-100.00,WSW,240,2.0,12.0,60,0.00,,,-99.99,,2013-09-30 14:42:00,
2013-09-30 10:53:00,59.0,45.0,-100.00,WSW,240,2.0,12.0,60,0.00,,,-99.99,,2013-09-30 14:53:00,
2013-09-30 11:02:00,59.0,45.0,-100.00,WSW,240,2.0,12.0,60,0.00,,,-99.99,,2013-09-30 15:02:00,
2013-09-30 11:45:00,63.0,48.0,-100.00,SW,230,2.0,17.0,57,0.00,,,-99.99,,2013-09-30 15:45:00,
2013-09-30 11:54:00,63.0,48.0,-100.00,SW,230,2.0,17.0,57,0.00,,,-99.99,,2013-09-30 15:54:00,
2013-09-30 12:04:00,63.0,48.0,-100.00,SW,230,2.0,17.0,57,0.00,,,-99.99,,2013-09-30 16:04:00,
2013-09-30 12:44:00,65.0,47.0,-100.00,NE,55,3.0,13.0,51,0.00,,,-99.99,,2013-09-30 16:44:00,
2013-09-30 12:53:00,65.0,47.0,-100.00,NE,55,3.0,13.0,51,0.00,,,-99.99,,2013-09-30 16:53:00,
2013-09-30 13:03:00,65.0,47.0,-100.00,NE,55,3.0,13.0,51,0.00,,,-99.99,,2013-09-30 17:03:00,
2013-09-30 13:43:00,69.0,46.0,-100.00,SSW,200,4.0,12.0,44,0.00,,,-99.99,,2013-09-30 17:43:00,
2013-09-30 13:53:00,69.0,46.0,-100.00,SSW,200,4.0,12.0,44,0.00,,,-99.99,,2013-09-30 17:53:00,
2013-09-30 14:02:00,69.0,46.0,-100.00,SSW,200,4.0,12.0,44,0.00,,,-99.99,,2013-09-30 18:02:00,
2013-09-30 14:42:00,68.0,44.0,-100.00,SSW,205,4.0,15.0,42,0.00,,,-99.99,,2013-09-30 18:42:00,
2013-09-30 14:53:00,68.0,44.0,-100.00,SSW,205,4.0,15.0,42,0.00,,,-99.99,,2013-09-30 18:53:00,
2013-09-30 15:02:00,68.0,44.0,-100.00,SSW,205,4.0,15.0,42,0.00,,,-99.99,,2013-09-30 19:02:00,
2013-09-30 15:42:00,70.0,44.0,-100.00,WSW,240,2.0,13.0,39,0.00,,,-99.99,,2013-09-30 19:42:00,
2013-09-30 15:53:00,70.0,44.0,-100.00,WSW,240,2.0,13.0,39,0.00,,,-99.99,,2013-09-30 19:53:00,
2013-09-30 16:02:00,70.0,44.0,-100.00,WSW,240,2.0,13.0,39,0.00,,,-99.99,,2013-09-30 20:02:00,
2013-09-30 17:10:00,70.0,45.0,-100.00,SW,220,5.0,13.0,40,0.00,,,-99.99,,2013-09-30 21:10:00,
2013-09-30 17:44:00,70.0,45.0,-100.00,SW,220,5.0,13.0,40,0.00,,,-99.99,,2013-09-30 21:44:00,
2013-09-30 17:54:00,70.0,45.0,-100.00,SW,220,5.0,13.0,40,0.00,,,-99.99,,2013-09-30 21:54:00,
2013-09-30 18:03:00,70.0,45.0,-100.00,SW,220,5.0,13.0,40,0.00,,,-99.99,,2013-09-30 22:03:00,
2013-09-30 18:44:00,69.0,45.0,-100.00,South,190,2.0,8.0,42,0.00,,,-99.99,,2013-09-30 22:44:00,
2013-09-30 18:54:00,69.0,45.0,-100.00,South,190,2.0,8.0,42,0.00,,,-99.99,,2013-09-30 22:54:00,
2013-09-30 19:03:00,69.0,45.0,-100.00,South,190,2.0,8.0,42,0.00,,,-99.99,,2013-09-30 23:03:00,
2013-09-30 19:10:00,66.0,45.0,-100.00,North,350,1.0,8.0,46,0.00,,,-99.99,,2013-09-30 23:10:00,
2013-09-30 19:43:00,66.0,45.0,-100.00,North,350,1.0,8.0,46,0.00,,,-99.99,,2013-09-30 23:43:00,
2013-09-30 19:54:00,66.0,45.0,-100.00,North,350,1.0,8.0,46,0.00,,,-99.99,,2013-09-30 23:54:00,
2013-09-30 20:03:00,66.0,45.0,-100.00,North,350,1.0,8.0,46,0.00,,,-99.99,,2013-10-01 00:03:00,
2013-09-30 20:43:00,65.0,44.0,-100.00,WSW,250,1.0,9.0,47,0.00,,,-99.99,,2013-10-01 00:43:00,
2013-09-30 20:52:00,65.0,44.0,-100.00,WSW,250,1.0,9.0,47,0.00,,,-99.99,,2013-10-01 00:52:00,
2013-09-30 21:03:00,65.0,44.0,-100.00,WSW,250,1.0,9.0,47,0.00,,,-99.99,,2013-10-01 01:03:00,
2013-09-30 21:42:00,64.0,44.0,-100.00,SSW,195,1.0,11.0,48,0.00,,,-99.99,,2013-10-01 01:42:00,
2013-09-30 21:52:00,64.0,44.0,-100.00,SSW,195,1.0,11.0,48,0.00,,,-99.99,,2013-10-01 01:52:00,
2013-09-30 22:02:00,64.0,44.0,-100.00,SSW,195,1.0,11.0,48,0.00,,,-99.99,,2013-10-01 02:02:00,
2013-09-30 22:43:00,64.0,45.0,-100.00,West,280,2.0,15.0,50,0.00,,,-99.99,,2013-10-01 02:43:00,
2013-09-30 22:52:00,64.0,45.0,-100.00,West,280,2.0,15.0,50,0.00,,,-99.99,,2013-10-01 02:52:00,
2013-09-30 23:03:00,64.0,45.0,-100.00,West,280,2.0,15.0,50,0.00,,,-99.99,,2013-10-01 03:03:00,
2013-09-30 23:44:00,63.0,45.0,-100.00,SW,215,2.0,9.0,53,0.00,,,-99.99,,2013-10-01 03:44:00,
2013-09-30 23:55:00,63.0,45.0,-100.00,SW,215,2.0,9.0,53,0.00,,,-99.99,,2013-10-01 03:55:00,